sensor_id;sensor_type;location;lat;lon;timestamp;temperature;humidity
12811;DHT22;6470;47.654;7.896;2022-09-09T00:03:44;15.70;99.90
12811;DHT22;6470;47.654;7.896;2022-09-09T00:06:24;15.30;99.90
12811;DHT22;6470;47.654;7.896;2022-09-09T00:09:22;15.60;99.90
12811;DHT22;6470;47.654;7.896;2022-09-09T00:11:53;15.70;99.90
12811;DHT22;6470;47.654;7.896;2022-09-09T00:16:56;12.90;99.90
12811;DHT22;6470;47.654;7.896;2022-09-09T00:19:33;15.60;99.90
12811;DHT22;6470;47.654;7.896;2022-09-09T00:24:41;15.30;99.90
12811;DHT22;6470;47.654;7.896;2022-09-09T00:27:16;15.60;99.90
12811;DHT22;6470;47.654;7.896;2022-09-09T00:30:12;13.30;99.90
12811;DHT22;6470;47.654;7.896;2022-09-09T00:32:39;15.60;99.90
12811;DHT22;6470;47.654;7.896;2022-09-09T00:37:38;14.80;99.90
12811;DHT22;6470;47.654;7.896;2022-09-09T00:40:37;15.40;99.90
12811;DHT22;6470;47.654;7.896;2022-09-09T00:51:17;15.10;99.90
12811;DHT22;6470;47.654;7.896;2022-09-09T00:56:37;15.20;99.90
12811;DHT22;6470;47.654;7.896;2022-09-09T00:59:15;15.30;99.90
12811;DHT22;6470;47.654;7.896;2022-09-09T01:01:47;13.70;99.90
12811;DHT22;6470;47.654;7.896;2022-09-09T01:04:18;15.70;99.90
12811;DHT22;6470;47.654;7.896;2022-09-09T01:06:50;13.90;99.90
12811;DHT22;6470;47.654;7.896;2022-09-09T01:12:15;10.90;99.90
12811;DHT22;6470;47.654;7.896;2022-09-09T01:14:48;15.20;99.90
12811;DHT22;6470;47.654;7.896;2022-09-09T01:17:56;15.30;99.90
12811;DHT22;6470;47.654;7.896;2022-09-09T01:20:29;15.30;99.90
12811;DHT22;6470;47.654;7.896;2022-09-09T01:26:25;14.30;99.90
12811;DHT22;6470;47.654;7.896;2022-09-09T01:28:52;15.70;99.90
12811;DHT22;6470;47.654;7.896;2022-09-09T01:31:26;15.50;99.90
12811;DHT22;6470;47.654;7.896;2022-09-09T01:33:53;15.90;99.90
12811;DHT22;6470;47.654;7.896;2022-09-09T01:38:45;15.70;99.90
12811;DHT22;6470;47.654;7.896;2022-09-09T01:41:10;11.10;99.90
12811;DHT22;6470;47.654;7.896;2022-09-09T01:43:36;15.50;99.90
12811;DHT22;6470;47.654;7.896;2022-09-09T01:46:02;15.10;99.90
12811;DHT22;6470;47.654;7.896;2022-09-09T01:48:28;15.70;99.90
12811;DHT22;6470;47.654;7.896;2022-09-09T01:50:55;15.60;99.90
12811;DHT22;6470;47.654;7.896;2022-09-09T01:53:21;15.10;99.90
12811;DHT22;6470;47.654;7.896;2022-09-09T02:01:19;15.80;99.90
12811;DHT22;6470;47.654;7.896;2022-09-09T02:03:52;15.50;99.90
12811;DHT22;6470;47.654;7.896;2022-09-09T02:06:35;15.30;99.90
12811;DHT22;6470;47.654;7.896;2022-09-09T02:09:05;15.60;99.90
12811;DHT22;6470;47.654;7.896;2022-09-09T02:11:32;15.90;99.90
12811;DHT22;6470;47.654;7.896;2022-09-09T02:14:14;14.00;99.90
12811;DHT22;6470;47.654;7.896;2022-09-09T02:16:59;15.60;99.90
12811;DHT22;6470;47.654;7.896;2022-09-09T02:19:32;15.70;99.90
12811;DHT22;6470;47.654;7.896;2022-09-09T02:22:01;15.50;99.90
12811;DHT22;6470;47.654;7.896;2022-09-09T02:24:29;15.50;99.90
12811;DHT22;6470;47.654;7.896;2022-09-09T02:26:56;15.40;99.90
12811;DHT22;6470;47.654;7.896;2022-09-09T02:29:28;15.60;99.90
12811;DHT22;6470;47.654;7.896;2022-09-09T02:31:58;15.60;99.90
12811;DHT22;6470;47.654;7.896;2022-09-09T02:34:26;16.00;99.90
12811;DHT22;6470;47.654;7.896;2022-09-09T02:36:53;16.20;99.90
12811;DHT22;6470;47.654;7.896;2022-09-09T02:39:20;15.70;99.90
12811;DHT22;6470;47.654;7.896;2022-09-09T02:41:46;15.40;99.90
12811;DHT22;6470;47.654;7.896;2022-09-09T02:44:15;14.10;99.90
12811;DHT22;6470;47.654;7.896;2022-09-09T02:47:13;16.10;99.90
12811;DHT22;6470;47.654;7.896;2022-09-09T02:52:13;15.30;99.90
12811;DHT22;6470;47.654;7.896;2022-09-09T02:54:42;15.90;99.90
12811;DHT22;6470;47.654;7.896;2022-09-09T02:57:10;14.30;99.90
12811;DHT22;6470;47.654;7.896;2022-09-09T02:59:37;15.70;99.90
12811;DHT22;6470;47.654;7.896;2022-09-09T03:02:03;15.30;99.90
12811;DHT22;6470;47.654;7.896;2022-09-09T03:04:29;14.80;99.90
12811;DHT22;6470;47.654;7.896;2022-09-09T03:06:57;15.50;99.90
12811;DHT22;6470;47.654;7.896;2022-09-09T03:09:22;14.10;99.90
12811;DHT22;6470;47.654;7.896;2022-09-09T03:11:49;16.00;99.90
12811;DHT22;6470;47.654;7.896;2022-09-09T03:16:42;16.10;99.90
12811;DHT22;6470;47.654;7.896;2022-09-09T03:19:08;15.80;99.90
12811;DHT22;6470;47.654;7.896;2022-09-09T03:24:01;14.20;99.90
12811;DHT22;6470;47.654;7.896;2022-09-09T03:26:29;16.00;99.90
12811;DHT22;6470;47.654;7.896;2022-09-09T03:28:56;16.40;99.90
12811;DHT22;6470;47.654;7.896;2022-09-09T03:31:22;15.90;99.90
12811;DHT22;6470;47.654;7.896;2022-09-09T03:33:47;15.70;99.90
12811;DHT22;6470;47.654;7.896;2022-09-09T03:36:14;15.80;99.90
12811;DHT22;6470;47.654;7.896;2022-09-09T03:38:40;14.10;99.90
12811;DHT22;6470;47.654;7.896;2022-09-09T03:43:33;16.10;99.90
12811;DHT22;6470;47.654;7.896;2022-09-09T03:45:59;14.10;99.90
12811;DHT22;6470;47.654;7.896;2022-09-09T03:48:25;15.00;99.90
12811;DHT22;6470;47.654;7.896;2022-09-09T03:50:54;15.70;99.90
12811;DHT22;6470;47.654;7.896;2022-09-09T03:53:22;16.00;99.90
12811;DHT22;6470;47.654;7.896;2022-09-09T03:55:52;14.60;99.90
12811;DHT22;6470;47.654;7.896;2022-09-09T03:58:20;14.20;99.90
12811;DHT22;6470;47.654;7.896;2022-09-09T04:01:02;14.10;99.90
12811;DHT22;6470;47.654;7.896;2022-09-09T04:03:28;15.10;99.90
12811;DHT22;6470;47.654;7.896;2022-09-09T04:05:56;15.70;99.90
12811;DHT22;6470;47.654;7.896;2022-09-09T04:08:22;15.50;99.90
12811;DHT22;6470;47.654;7.896;2022-09-09T04:10:51;14.20;99.90
12811;DHT22;6470;47.654;7.896;2022-09-09T04:13:18;15.80;99.90
12811;DHT22;6470;47.654;7.896;2022-09-09T04:15:58;14.90;99.90
12811;DHT22;6470;47.654;7.896;2022-09-09T04:18:25;14.50;99.90
12811;DHT22;6470;47.654;7.896;2022-09-09T04:20:52;15.80;99.90
12811;DHT22;6470;47.654;7.896;2022-09-09T04:23:20;15.90;99.90
12811;DHT22;6470;47.654;7.896;2022-09-09T04:25:50;16.00;99.90
12811;DHT22;6470;47.654;7.896;2022-09-09T04:28:18;14.40;99.90
12811;DHT22;6470;47.654;7.896;2022-09-09T04:30:45;15.80;99.90
12811;DHT22;6470;47.654;7.896;2022-09-09T04:33:11;15.70;99.90
12811;DHT22;6470;47.654;7.896;2022-09-09T04:35:37;15.30;99.90
12811;DHT22;6470;47.654;7.896;2022-09-09T04:40:30;15.60;99.90
12811;DHT22;6470;47.654;7.896;2022-09-09T04:43:03;16.40;99.90
12811;DHT22;6470;47.654;7.896;2022-09-09T04:45:31;14.60;99.90
12811;DHT22;6470;47.654;7.896;2022-09-09T04:47:57;11.90;99.90
12811;DHT22;6470;47.654;7.896;2022-09-09T04:50:23;14.80;99.90
12811;DHT22;6470;47.654;7.896;2022-09-09T04:52:49;15.90;99.90
12811;DHT22;6470;47.654;7.896;2022-09-09T04:55:14;16.10;99.90
12811;DHT22;6470;47.654;7.896;2022-09-09T04:57:41;15.70;99.90
12811;DHT22;6470;47.654;7.896;2022-09-09T05:00:07;11.50;99.90
12811;DHT22;6470;47.654;7.896;2022-09-09T05:02:37;14.40;99.90
12811;DHT22;6470;47.654;7.896;2022-09-09T05:05:04;14.90;99.90
12811;DHT22;6470;47.654;7.896;2022-09-09T05:07:30;16.20;99.90
12811;DHT22;6470;47.654;7.896;2022-09-09T05:09:57;14.40;99.90
12811;DHT22;6470;47.654;7.896;2022-09-09T05:12:23;14.40;99.90
12811;DHT22;6470;47.654;7.896;2022-09-09T05:14:51;15.80;99.90
12811;DHT22;6470;47.654;7.896;2022-09-09T05:17:17;14.30;99.90
12811;DHT22;6470;47.654;7.896;2022-09-09T05:19:43;15.10;99.90
12811;DHT22;6470;47.654;7.896;2022-09-09T05:27:03;15.10;99.90
12811;DHT22;6470;47.654;7.896;2022-09-09T05:29:30;16.00;99.90
12811;DHT22;6470;47.654;7.896;2022-09-09T05:31:59;16.20;99.90
12811;DHT22;6470;47.654;7.896;2022-09-09T05:36:51;14.60;99.90
12811;DHT22;6470;47.654;7.896;2022-09-09T05:39:17;16.30;99.90
12811;DHT22;6470;47.654;7.896;2022-09-09T05:41:43;14.50;99.90
12811;DHT22;6470;47.654;7.896;2022-09-09T05:44:09;14.50;99.90
12811;DHT22;6470;47.654;7.896;2022-09-09T05:46:35;15.80;99.90
12811;DHT22;6470;47.654;7.896;2022-09-09T05:49:02;14.50;99.90
12811;DHT22;6470;47.654;7.896;2022-09-09T05:51:28;16.20;99.90
12811;DHT22;6470;47.654;7.896;2022-09-09T05:53:55;16.00;99.90
12811;DHT22;6470;47.654;7.896;2022-09-09T05:56:25;16.20;99.90
12811;DHT22;6470;47.654;7.896;2022-09-09T06:01:53;15.80;99.90
12811;DHT22;6470;47.654;7.896;2022-09-09T06:04:12;15.90;99.90
12811;DHT22;6470;47.654;7.896;2022-09-09T06:06:38;15.50;99.90
12811;DHT22;6470;47.654;7.896;2022-09-09T06:09:07;15.70;99.90
12811;DHT22;6470;47.654;7.896;2022-09-09T06:11:36;15.50;99.90
12811;DHT22;6470;47.654;7.896;2022-09-09T06:14:03;15.30;99.90
12811;DHT22;6470;47.654;7.896;2022-09-09T06:16:30;16.00;99.90
12811;DHT22;6470;47.654;7.896;2022-09-09T06:18:58;16.10;99.90
12811;DHT22;6470;47.654;7.896;2022-09-09T06:26:26;16.40;99.90
12811;DHT22;6470;47.654;7.896;2022-09-09T06:28:53;16.10;99.90
12811;DHT22;6470;47.654;7.896;2022-09-09T06:31:22;15.80;99.90
12811;DHT22;6470;47.654;7.896;2022-09-09T06:33:50;15.50;99.90
12811;DHT22;6470;47.654;7.896;2022-09-09T06:36:18;16.20;99.90
12811;DHT22;6470;47.654;7.896;2022-09-09T06:41:12;15.60;99.90
12811;DHT22;6470;47.654;7.896;2022-09-09T06:43:38;15.80;99.90
12811;DHT22;6470;47.654;7.896;2022-09-09T06:46:22;16.00;99.90
12811;DHT22;6470;47.654;7.896;2022-09-09T06:48:48;16.60;99.90
12811;DHT22;6470;47.654;7.896;2022-09-09T06:51:19;16.20;99.90
12811;DHT22;6470;47.654;7.896;2022-09-09T06:53:49;16.10;99.90
12811;DHT22;6470;47.654;7.896;2022-09-09T06:56:25;16.20;99.90
12811;DHT22;6470;47.654;7.896;2022-09-09T06:58:52;16.70;99.90
12811;DHT22;6470;47.654;7.896;2022-09-09T07:01:27;17.00;99.90
12811;DHT22;6470;47.654;7.896;2022-09-09T07:03:55;17.50;99.90
12811;DHT22;6470;47.654;7.896;2022-09-09T07:06:29;16.70;99.90
12811;DHT22;6470;47.654;7.896;2022-09-09T07:09:00;13.70;99.90
12811;DHT22;6470;47.654;7.896;2022-09-09T07:11:28;15.70;99.90
12811;DHT22;6470;47.654;7.896;2022-09-09T07:13:56;16.40;99.90
12811;DHT22;6470;47.654;7.896;2022-09-09T07:18:53;16.70;99.90
12811;DHT22;6470;47.654;7.896;2022-09-09T07:21:23;16.70;99.90
12811;DHT22;6470;47.654;7.896;2022-09-09T07:23:50;16.70;99.90
12811;DHT22;6470;47.654;7.896;2022-09-09T07:26:20;16.40;99.90
12811;DHT22;6470;47.654;7.896;2022-09-09T07:31:15;16.30;99.90
12811;DHT22;6470;47.654;7.896;2022-09-09T07:33:42;17.10;99.90
12811;DHT22;6470;47.654;7.896;2022-09-09T07:38:58;17.20;99.90
12811;DHT22;6470;47.654;7.896;2022-09-09T07:41:27;17.30;99.90
12811;DHT22;6470;47.654;7.896;2022-09-09T07:43:53;16.50;99.90
12811;DHT22;6470;47.654;7.896;2022-09-09T07:46:21;17.10;99.90
12811;DHT22;6470;47.654;7.896;2022-09-09T07:48:50;16.60;99.90
12811;DHT22;6470;47.654;7.896;2022-09-09T07:51:18;17.10;99.90
12811;DHT22;6470;47.654;7.896;2022-09-09T07:53:46;16.90;99.90
12811;DHT22;6470;47.654;7.896;2022-09-09T07:56:17;17.70;99.90
12811;DHT22;6470;47.654;7.896;2022-09-09T07:58:45;17.90;99.90
12811;DHT22;6470;47.654;7.896;2022-09-09T08:01:17;18.20;99.90
12811;DHT22;6470;47.654;7.896;2022-09-09T08:03:44;18.80;99.90
12811;DHT22;6470;47.654;7.896;2022-09-09T08:06:10;18.20;99.90
12811;DHT22;6470;47.654;7.896;2022-09-09T08:08:38;17.80;99.90
12811;DHT22;6470;47.654;7.896;2022-09-09T08:11:12;18.00;99.90
12811;DHT22;6470;47.654;7.896;2022-09-09T08:13:39;18.00;99.90
12811;DHT22;6470;47.654;7.896;2022-09-09T08:16:19;18.80;99.90
12811;DHT22;6470;47.654;7.896;2022-09-09T08:18:48;15.50;99.90
12811;DHT22;6470;47.654;7.896;2022-09-09T08:21:18;18.10;99.90
12811;DHT22;6470;47.654;7.896;2022-09-09T08:23:46;17.60;99.90
12811;DHT22;6470;47.654;7.896;2022-09-09T08:28:39;18.20;99.90
12811;DHT22;6470;47.654;7.896;2022-09-09T08:31:15;17.90;99.90
12811;DHT22;6470;47.654;7.896;2022-09-09T08:33:43;18.40;99.90
12811;DHT22;6470;47.654;7.896;2022-09-09T08:36:13;18.60;99.90
12811;DHT22;6470;47.654;7.896;2022-09-09T08:38:41;18.40;99.90
12811;DHT22;6470;47.654;7.896;2022-09-09T08:43:34;18.80;99.90
12811;DHT22;6470;47.654;7.896;2022-09-09T08:46:07;18.40;99.90
12811;DHT22;6470;47.654;7.896;2022-09-09T08:48:58;18.10;99.90
12811;DHT22;6470;47.654;7.896;2022-09-09T08:51:27;18.80;99.90
12811;DHT22;6470;47.654;7.896;2022-09-09T08:53:58;19.20;99.90
12811;DHT22;6470;47.654;7.896;2022-09-09T08:56:27;19.20;99.90
12811;DHT22;6470;47.654;7.896;2022-09-09T08:58:55;19.00;99.90
12811;DHT22;6470;47.654;7.896;2022-09-09T09:01:42;16.20;99.90
12811;DHT22;6470;47.654;7.896;2022-09-09T09:07:13;19.30;99.90
12811;DHT22;6470;47.654;7.896;2022-09-09T09:10:02;19.70;99.90
12811;DHT22;6470;47.654;7.896;2022-09-09T09:12:43;20.30;99.90
12811;DHT22;6470;47.654;7.896;2022-09-09T09:15:26;20.10;99.90
12811;DHT22;6470;47.654;7.896;2022-09-09T09:17:52;19.40;99.90
12811;DHT22;6470;47.654;7.896;2022-09-09T09:20:23;20.10;99.90
12811;DHT22;6470;47.654;7.896;2022-09-09T09:22:55;20.30;99.90
12811;DHT22;6470;47.654;7.896;2022-09-09T09:25:44;19.50;99.90
12811;DHT22;6470;47.654;7.896;2022-09-09T09:28:16;19.40;99.90
12811;DHT22;6470;47.654;7.896;2022-09-09T09:31:11;19.40;99.90
12811;DHT22;6470;47.654;7.896;2022-09-09T09:36:09;19.40;99.90
12811;DHT22;6470;47.654;7.896;2022-09-09T09:38:36;19.70;99.90
12811;DHT22;6470;47.654;7.896;2022-09-09T09:41:02;19.50;99.90
12811;DHT22;6470;47.654;7.896;2022-09-09T09:43:30;19.70;99.90
12811;DHT22;6470;47.654;7.896;2022-09-09T09:45:56;20.50;99.90
12811;DHT22;6470;47.654;7.896;2022-09-09T09:48:27;20.20;99.90
12811;DHT22;6470;47.654;7.896;2022-09-09T09:51:10;20.40;99.90
12811;DHT22;6470;47.654;7.896;2022-09-09T09:56:14;20.40;99.90
12811;DHT22;6470;47.654;7.896;2022-09-09T09:58:50;20.70;99.90
12811;DHT22;6470;47.654;7.896;2022-09-09T10:01:32;20.90;99.90
12811;DHT22;6470;47.654;7.896;2022-09-09T10:04:16;21.30;99.90
12811;DHT22;6470;47.654;7.896;2022-09-09T10:09:28;21.00;99.90
12811;DHT22;6470;47.654;7.896;2022-09-09T10:12:25;20.60;99.90
12811;DHT22;6470;47.654;7.896;2022-09-09T10:18:00;21.40;99.90
12811;DHT22;6470;47.654;7.896;2022-09-09T10:29:02;21.60;99.90
12811;DHT22;6470;47.654;7.896;2022-09-09T10:32:00;21.80;99.90
12811;DHT22;6470;47.654;7.896;2022-09-09T10:55:02;23.00;99.90
12811;DHT22;6470;47.654;7.896;2022-09-09T11:00:01;22.00;99.90
12811;DHT22;6470;47.654;7.896;2022-09-09T11:02:33;22.80;99.90
12811;DHT22;6470;47.654;7.896;2022-09-09T11:05:35;22.40;99.90
12811;DHT22;6470;47.654;7.896;2022-09-09T11:08:12;23.20;99.90
12811;DHT22;6470;47.654;7.896;2022-09-09T11:18:42;23.10;99.90
12811;DHT22;6470;47.654;7.896;2022-09-09T11:21:21;23.40;99.90
12811;DHT22;6470;47.654;7.896;2022-09-09T11:23:57;23.40;99.90
12811;DHT22;6470;47.654;7.896;2022-09-09T11:26:32;23.40;99.90
12811;DHT22;6470;47.654;7.896;2022-09-09T11:38:09;23.40;99.90
12811;DHT22;6470;47.654;7.896;2022-09-09T11:40:40;23.20;99.90
12811;DHT22;6470;47.654;7.896;2022-09-09T11:43:11;22.80;99.90
12811;DHT22;6470;47.654;7.896;2022-09-09T11:45:40;22.30;99.90
12811;DHT22;6470;47.654;7.896;2022-09-09T11:48:43;22.40;99.90
12811;DHT22;6470;47.654;7.896;2022-09-09T11:51:26;22.90;99.90
12811;DHT22;6470;47.654;7.896;2022-09-09T11:53:55;23.20;99.90
12811;DHT22;6470;47.654;7.896;2022-09-09T11:56:34;22.60;99.90
12811;DHT22;6470;47.654;7.896;2022-09-09T11:59:05;23.40;99.90
12811;DHT22;6470;47.654;7.896;2022-09-09T12:01:39;23.10;99.90
12811;DHT22;6470;47.654;7.896;2022-09-09T12:04:49;23.40;99.90
12811;DHT22;6470;47.654;7.896;2022-09-09T12:07:23;19.30;99.90
12811;DHT22;6470;47.654;7.896;2022-09-09T12:12:36;21.90;99.90
12811;DHT22;6470;47.654;7.896;2022-09-09T12:17:45;22.40;99.90
12811;DHT22;6470;47.654;7.896;2022-09-09T12:33:49;23.90;99.90
12811;DHT22;6470;47.654;7.896;2022-09-09T12:36:29;23.80;99.90
12811;DHT22;6470;47.654;7.896;2022-09-09T12:38:59;24.10;99.90
12811;DHT22;6470;47.654;7.896;2022-09-09T12:41:36;21.30;99.90
12811;DHT22;6470;47.654;7.896;2022-09-09T12:44:20;23.70;99.90
12811;DHT22;6470;47.654;7.896;2022-09-09T12:46:46;23.60;99.90
12811;DHT22;6470;47.654;7.896;2022-09-09T12:52:26;23.90;99.90
12811;DHT22;6470;47.654;7.896;2022-09-09T12:54:53;23.60;99.90
12811;DHT22;6470;47.654;7.896;2022-09-09T12:57:21;24.10;99.90
12811;DHT22;6470;47.654;7.896;2022-09-09T12:59:50;23.50;99.90
12811;DHT22;6470;47.654;7.896;2022-09-09T13:02:24;24.00;99.90
12811;DHT22;6470;47.654;7.896;2022-09-09T13:04:51;23.40;99.90
12811;DHT22;6470;47.654;7.896;2022-09-09T13:07:18;22.90;99.90
12811;DHT22;6470;47.654;7.896;2022-09-09T13:09:46;22.60;99.90
12811;DHT22;6470;47.654;7.896;2022-09-09T13:12:19;22.50;99.90
12811;DHT22;6470;47.654;7.896;2022-09-09T13:14:48;22.90;99.90
12811;DHT22;6470;47.654;7.896;2022-09-09T13:17:27;22.80;99.90
12811;DHT22;6470;47.654;7.896;2022-09-09T13:19:56;22.30;99.90
12811;DHT22;6470;47.654;7.896;2022-09-09T13:22:33;22.30;99.90
12811;DHT22;6470;47.654;7.896;2022-09-09T13:25:19;21.80;99.90
12811;DHT22;6470;47.654;7.896;2022-09-09T13:30:25;21.60;99.90
12811;DHT22;6470;47.654;7.896;2022-09-09T13:36:11;21.80;99.90
12811;DHT22;6470;47.654;7.896;2022-09-09T13:38:59;19.10;99.90
12811;DHT22;6470;47.654;7.896;2022-09-09T13:43:56;21.30;99.90
12811;DHT22;6470;47.654;7.896;2022-09-09T13:46:36;22.30;99.90
12811;DHT22;6470;47.654;7.896;2022-09-09T13:49:22;21.50;99.90
12811;DHT22;6470;47.654;7.896;2022-09-09T13:51:50;22.10;99.90
12811;DHT22;6470;47.654;7.896;2022-09-09T13:54:19;22.00;99.90
12811;DHT22;6470;47.654;7.896;2022-09-09T13:56:45;22.50;99.90
12811;DHT22;6470;47.654;7.896;2022-09-09T13:59:16;23.00;99.90
12811;DHT22;6470;47.654;7.896;2022-09-09T14:01:43;23.00;99.90
12811;DHT22;6470;47.654;7.896;2022-09-09T14:04:10;23.60;99.90
12811;DHT22;6470;47.654;7.896;2022-09-09T14:06:36;22.60;99.90
12811;DHT22;6470;47.654;7.896;2022-09-09T14:09:06;23.40;99.90
12811;DHT22;6470;47.654;7.896;2022-09-09T14:11:32;22.50;99.90
12811;DHT22;6470;47.654;7.896;2022-09-09T14:13:57;22.70;99.90
12811;DHT22;6470;47.654;7.896;2022-09-09T14:16:23;22.10;99.90
12811;DHT22;6470;47.654;7.896;2022-09-09T14:18:50;22.30;99.90
12811;DHT22;6470;47.654;7.896;2022-09-09T14:21:16;22.20;99.90
12811;DHT22;6470;47.654;7.896;2022-09-09T14:23:41;22.50;99.90
12811;DHT22;6470;47.654;7.896;2022-09-09T14:26:08;22.40;99.90
12811;DHT22;6470;47.654;7.896;2022-09-09T14:28:34;22.90;99.90
12811;DHT22;6470;47.654;7.896;2022-09-09T14:31:02;22.80;99.90
12811;DHT22;6470;47.654;7.896;2022-09-09T14:33:27;18.60;99.90
12811;DHT22;6470;47.654;7.896;2022-09-09T14:36:00;23.00;99.90
12811;DHT22;6470;47.654;7.896;2022-09-09T14:38:32;23.30;99.90
12811;DHT22;6470;47.654;7.896;2022-09-09T14:41:02;22.30;99.90
12811;DHT22;6470;47.654;7.896;2022-09-09T14:43:29;23.40;99.90
12811;DHT22;6470;47.654;7.896;2022-09-09T14:45:55;22.60;99.90
12811;DHT22;6470;47.654;7.896;2022-09-09T14:48:21;23.50;99.90
12811;DHT22;6470;47.654;7.896;2022-09-09T14:50:46;22.80;99.90
12811;DHT22;6470;47.654;7.896;2022-09-09T14:53:12;22.90;99.90
12811;DHT22;6470;47.654;7.896;2022-09-09T14:55:38;22.50;99.90
12811;DHT22;6470;47.654;7.896;2022-09-09T14:58:04;22.70;99.90
12811;DHT22;6470;47.654;7.896;2022-09-09T15:00:31;22.90;99.90
12811;DHT22;6470;47.654;7.896;2022-09-09T15:02:57;22.20;99.90
12811;DHT22;6470;47.654;7.896;2022-09-09T15:05:23;23.80;99.90
12811;DHT22;6470;47.654;7.896;2022-09-09T15:07:49;23.50;99.90
12811;DHT22;6470;47.654;7.896;2022-09-09T15:10:15;23.40;99.90
12811;DHT22;6470;47.654;7.896;2022-09-09T15:12:43;23.70;99.90
12811;DHT22;6470;47.654;7.896;2022-09-09T15:15:09;20.40;99.90
12811;DHT22;6470;47.654;7.896;2022-09-09T15:17:35;23.00;99.90
12811;DHT22;6470;47.654;7.896;2022-09-09T15:20:02;23.30;99.90
12811;DHT22;6470;47.654;7.896;2022-09-09T15:22:28;23.30;99.90
12811;DHT22;6470;47.654;7.896;2022-09-09T15:24:54;23.40;99.90
12811;DHT22;6470;47.654;7.896;2022-09-09T15:27:20;23.20;99.90
12811;DHT22;6470;47.654;7.896;2022-09-09T15:29:46;23.50;99.90
12811;DHT22;6470;47.654;7.896;2022-09-09T15:32:12;22.80;99.90
12811;DHT22;6470;47.654;7.896;2022-09-09T15:34:38;22.50;99.90
12811;DHT22;6470;47.654;7.896;2022-09-09T15:37:03;22.70;99.90
12811;DHT22;6470;47.654;7.896;2022-09-09T15:39:29;23.60;99.90
12811;DHT22;6470;47.654;7.896;2022-09-09T15:41:54;22.90;99.90
12811;DHT22;6470;47.654;7.896;2022-09-09T15:44:20;23.70;99.90
12811;DHT22;6470;47.654;7.896;2022-09-09T15:46:52;22.90;99.90
12811;DHT22;6470;47.654;7.896;2022-09-09T15:49:25;22.80;99.90
12811;DHT22;6470;47.654;7.896;2022-09-09T15:51:56;22.40;99.90
12811;DHT22;6470;47.654;7.896;2022-09-09T15:54:31;21.80;99.90
12811;DHT22;6470;47.654;7.896;2022-09-09T15:56:59;21.70;99.90
12811;DHT22;6470;47.654;7.896;2022-09-09T15:59:29;21.30;99.90
12811;DHT22;6470;47.654;7.896;2022-09-09T16:01:55;20.80;99.90
12811;DHT22;6470;47.654;7.896;2022-09-09T16:04:22;20.00;99.90
12811;DHT22;6470;47.654;7.896;2022-09-09T16:06:53;20.50;99.90
12811;DHT22;6470;47.654;7.896;2022-09-09T16:09:20;21.50;99.90
12811;DHT22;6470;47.654;7.896;2022-09-09T16:11:47;20.90;99.90
12811;DHT22;6470;47.654;7.896;2022-09-09T16:14:14;21.00;99.90
12811;DHT22;6470;47.654;7.896;2022-09-09T16:16:41;20.80;99.90
12811;DHT22;6470;47.654;7.896;2022-09-09T16:19:09;19.70;99.90
12811;DHT22;6470;47.654;7.896;2022-09-09T16:21:46;20.10;99.90
12811;DHT22;6470;47.654;7.896;2022-09-09T16:24:15;20.20;99.90
12811;DHT22;6470;47.654;7.896;2022-09-09T16:26:43;20.20;99.90
12811;DHT22;6470;47.654;7.896;2022-09-09T16:29:12;19.80;99.90
12811;DHT22;6470;47.654;7.896;2022-09-09T16:31:38;19.80;99.90
12811;DHT22;6470;47.654;7.896;2022-09-09T16:34:06;20.00;99.90
12811;DHT22;6470;47.654;7.896;2022-09-09T16:36:33;19.40;99.90
12811;DHT22;6470;47.654;7.896;2022-09-09T16:39:01;19.40;99.90
12811;DHT22;6470;47.654;7.896;2022-09-09T16:41:29;19.40;99.90
12811;DHT22;6470;47.654;7.896;2022-09-09T16:43:56;19.70;99.90
12811;DHT22;6470;47.654;7.896;2022-09-09T16:46:24;19.30;99.90
12811;DHT22;6470;47.654;7.896;2022-09-09T16:48:50;19.30;99.90
12811;DHT22;6470;47.654;7.896;2022-09-09T16:51:24;19.20;99.90
12811;DHT22;6470;47.654;7.896;2022-09-09T16:53:51;19.50;99.90
12811;DHT22;6470;47.654;7.896;2022-09-09T16:56:20;19.30;99.90
12811;DHT22;6470;47.654;7.896;2022-09-09T16:58:57;19.20;99.90
12811;DHT22;6470;47.654;7.896;2022-09-09T17:01:28;18.50;99.90
12811;DHT22;6470;47.654;7.896;2022-09-09T17:04:01;19.80;99.90
12811;DHT22;6470;47.654;7.896;2022-09-09T17:06:31;18.60;99.90
12811;DHT22;6470;47.654;7.896;2022-09-09T17:09:02;19.10;99.90
12811;DHT22;6470;47.654;7.896;2022-09-09T17:11:29;18.80;99.90
12811;DHT22;6470;47.654;7.896;2022-09-09T17:13:56;19.10;99.90
12811;DHT22;6470;47.654;7.896;2022-09-09T17:16:25;18.90;99.90
12811;DHT22;6470;47.654;7.896;2022-09-09T17:18:53;18.20;99.90
12811;DHT22;6470;47.654;7.896;2022-09-09T17:21:21;18.80;99.90
12811;DHT22;6470;47.654;7.896;2022-09-09T17:23:48;17.40;99.90
12811;DHT22;6470;47.654;7.896;2022-09-09T17:26:17;18.70;99.90
12811;DHT22;6470;47.654;7.896;2022-09-09T17:28:43;18.70;99.90
12811;DHT22;6470;47.654;7.896;2022-09-09T17:31:11;17.70;99.90
12811;DHT22;6470;47.654;7.896;2022-09-09T17:33:40;18.90;99.90
12811;DHT22;6470;47.654;7.896;2022-09-09T17:38:40;17.60;99.90
12811;DHT22;6470;47.654;7.896;2022-09-09T17:43:37;15.20;99.90
12811;DHT22;6470;47.654;7.896;2022-09-09T17:46:14;17.80;99.90
12811;DHT22;6470;47.654;7.896;2022-09-09T17:48:42;18.70;99.90
12811;DHT22;6470;47.654;7.896;2022-09-09T17:51:11;17.40;99.90
12811;DHT22;6470;47.654;7.896;2022-09-09T17:53:48;15.30;99.90
12811;DHT22;6470;47.654;7.896;2022-09-09T17:56:17;17.30;99.90
12811;DHT22;6470;47.654;7.896;2022-09-09T17:58:45;16.60;99.90
12811;DHT22;6470;47.654;7.896;2022-09-09T18:01:19;17.10;99.90
12811;DHT22;6470;47.654;7.896;2022-09-09T18:03:46;17.90;99.90
12811;DHT22;6470;47.654;7.896;2022-09-09T18:06:15;17.90;99.90
12811;DHT22;6470;47.654;7.896;2022-09-09T18:08:46;17.60;99.90
12811;DHT22;6470;47.654;7.896;2022-09-09T18:11:12;17.30;99.90
12811;DHT22;6470;47.654;7.896;2022-09-09T18:13:38;17.30;99.90
12811;DHT22;6470;47.654;7.896;2022-09-09T18:16:08;16.70;99.90
12811;DHT22;6470;47.654;7.896;2022-09-09T18:18:35;17.70;99.90
12811;DHT22;6470;47.654;7.896;2022-09-09T18:21:03;16.90;99.90
12811;DHT22;6470;47.654;7.896;2022-09-09T18:23:34;16.70;99.90
12811;DHT22;6470;47.654;7.896;2022-09-09T18:26:11;16.20;99.90
12811;DHT22;6470;47.654;7.896;2022-09-09T18:28:38;16.30;99.90
12811;DHT22;6470;47.654;7.896;2022-09-09T18:31:10;16.50;99.90
12811;DHT22;6470;47.654;7.896;2022-09-09T18:33:37;15.70;99.90
12811;DHT22;6470;47.654;7.896;2022-09-09T18:36:06;16.10;99.90
12811;DHT22;6470;47.654;7.896;2022-09-09T18:38:33;16.90;99.90
12811;DHT22;6470;47.654;7.896;2022-09-09T18:41:01;15.40;99.90
12811;DHT22;6470;47.654;7.896;2022-09-09T18:43:36;16.70;99.90
12811;DHT22;6470;47.654;7.896;2022-09-09T18:46:03;16.00;99.90
12811;DHT22;6470;47.654;7.896;2022-09-09T18:48:32;16.30;99.90
12811;DHT22;6470;47.654;7.896;2022-09-09T18:51:04;15.90;99.90
12811;DHT22;6470;47.654;7.896;2022-09-09T18:53:31;16.40;99.90
12811;DHT22;6470;47.654;7.896;2022-09-09T18:56:01;16.00;99.90
12811;DHT22;6470;47.654;7.896;2022-09-09T18:58:31;15.40;99.90
12811;DHT22;6470;47.654;7.896;2022-09-09T19:01:00;13.20;99.90